sensor_id;sensor_type;location;lat;lon;timestamp;pressure;altitude;pressure_sealevel;temperature
23208;BMP180;11773;52.570;13.052;2023-10-13T00:01:39;101125.00;;;20.30
23208;BMP180;11773;52.570;13.052;2023-10-13T00:04:09;101121.00;;;20.20
23208;BMP180;11773;52.570;13.052;2023-10-13T00:06:39;101112.00;;;20.20
23208;BMP180;11773;52.570;13.052;2023-10-13T00:09:10;101122.00;;;20.20
23208;BMP180;11773;52.570;13.052;2023-10-13T00:11:44;101110.00;;;20.20
23208;BMP180;11773;52.570;13.052;2023-10-13T00:14:14;101113.00;;;20.20
23208;BMP180;11773;52.570;13.052;2023-10-13T00:16:49;101112.00;;;20.10
23208;BMP180;11773;52.570;13.052;2023-10-13T00:19:36;101114.00;;;20.10
23208;BMP180;11773;52.570;13.052;2023-10-13T00:22:10;101112.00;;;20.10
23208;BMP180;11773;52.570;13.052;2023-10-13T00:24:42;101118.00;;;20.10
23208;BMP180;11773;52.570;13.052;2023-10-13T00:27:20;101110.00;;;20.10
23208;BMP180;11773;52.570;13.052;2023-10-13T00:30:01;101118.00;;;20.10
23208;BMP180;11773;52.570;13.052;2023-10-13T00:32:51;101124.00;;;20.10
23208;BMP180;11773;52.570;13.052;2023-10-13T00:35:27;101105.00;;;20.10
23208;BMP180;11773;52.570;13.052;2023-10-13T00:37:58;101096.00;;;20.00
23208;BMP180;11773;52.570;13.052;2023-10-13T00:40:35;101099.00;;;20.00
23208;BMP180;11773;52.570;13.052;2023-10-13T00:43:06;101106.00;;;20.00
23208;BMP180;11773;52.570;13.052;2023-10-13T00:45:54;101100.00;;;19.90
23208;BMP180;11773;52.570;13.052;2023-10-13T00:48:28;101096.00;;;19.90
23208;BMP180;11773;52.570;13.052;2023-10-13T00:51:03;101113.00;;;19.90
23208;BMP180;11773;52.570;13.052;2023-10-13T00:53:38;101100.00;;;19.90
23208;BMP180;11773;52.570;13.052;2023-10-13T00:56:13;101112.00;;;19.90
23208;BMP180;11773;52.570;13.052;2023-10-13T00:58:57;101100.00;;;19.90
23208;BMP180;11773;52.570;13.052;2023-10-13T01:01:29;101100.00;;;19.90
23208;BMP180;11773;52.570;13.052;2023-10-13T01:04:02;101085.00;;;19.90
23208;BMP180;11773;52.570;13.052;2023-10-13T01:06:33;101091.00;;;19.90
23208;BMP180;11773;52.570;13.052;2023-10-13T01:09:10;101092.00;;;19.90
23208;BMP180;11773;52.570;13.052;2023-10-13T01:11:50;101094.00;;;19.90
23208;BMP180;11773;52.570;13.052;2023-10-13T01:14:23;101088.00;;;19.90
23208;BMP180;11773;52.570;13.052;2023-10-13T01:16:55;101092.00;;;19.90
23208;BMP180;11773;52.570;13.052;2023-10-13T01:19:27;101100.00;;;19.90
23208;BMP180;11773;52.570;13.052;2023-10-13T01:21:57;101087.00;;;19.90
23208;BMP180;11773;52.570;13.052;2023-10-13T01:24:32;101089.00;;;19.90
23208;BMP180;11773;52.570;13.052;2023-10-13T01:27:23;101091.00;;;19.90
23208;BMP180;11773;52.570;13.052;2023-10-13T01:29:53;101091.00;;;19.90
23208;BMP180;11773;52.570;13.052;2023-10-13T01:32:30;101083.00;;;19.90
23208;BMP180;11773;52.570;13.052;2023-10-13T01:35:00;101086.00;;;20.00
23208;BMP180;11773;52.570;13.052;2023-10-13T01:37:31;101093.00;;;20.00
23208;BMP180;11773;52.570;13.052;2023-10-13T01:40:01;101089.00;;;20.00
23208;BMP180;11773;52.570;13.052;2023-10-13T01:42:32;101099.00;;;20.00
23208;BMP180;11773;52.570;13.052;2023-10-13T01:45:04;101080.00;;;20.00
23208;BMP180;11773;52.570;13.052;2023-10-13T01:47:37;101071.00;;;20.00
23208;BMP180;11773;52.570;13.052;2023-10-13T01:50:08;101075.00;;;19.90
23208;BMP180;11773;52.570;13.052;2023-10-13T01:52:45;101059.00;;;19.90
23208;BMP180;11773;52.570;13.052;2023-10-13T01:55:15;101062.00;;;19.90
23208;BMP180;11773;52.570;13.052;2023-10-13T01:57:44;101073.00;;;19.90
23208;BMP180;11773;52.570;13.052;2023-10-13T02:00:16;101064.00;;;19.80
23208;BMP180;11773;52.570;13.052;2023-10-13T02:02:48;101078.00;;;19.80
23208;BMP180;11773;52.570;13.052;2023-10-13T02:05:19;101056.00;;;19.80
23208;BMP180;11773;52.570;13.052;2023-10-13T02:07:49;101068.00;;;19.80
23208;BMP180;11773;52.570;13.052;2023-10-13T02:10:18;101063.00;;;19.80
23208;BMP180;11773;52.570;13.052;2023-10-13T02:12:50;101061.00;;;19.80
23208;BMP180;11773;52.570;13.052;2023-10-13T02:15:21;101066.00;;;19.80
23208;BMP180;11773;52.570;13.052;2023-10-13T02:17:53;101062.00;;;19.70
23208;BMP180;11773;52.570;13.052;2023-10-13T02:20:24;101047.00;;;19.70
23208;BMP180;11773;52.570;13.052;2023-10-13T02:22:55;101064.00;;;19.70
23208;BMP180;11773;52.570;13.052;2023-10-13T02:25:25;101050.00;;;19.80
23208;BMP180;11773;52.570;13.052;2023-10-13T02:28:05;101050.00;;;19.70
23208;BMP180;11773;52.570;13.052;2023-10-13T02:30:44;101045.00;;;19.70
23208;BMP180;11773;52.570;13.052;2023-10-13T02:33:14;101037.00;;;19.70
23208;BMP180;11773;52.570;13.052;2023-10-13T02:35:46;101038.00;;;19.70
23208;BMP180;11773;52.570;13.052;2023-10-13T02:38:25;101043.00;;;19.70
23208;BMP180;11773;52.570;13.052;2023-10-13T02:41:17;101045.00;;;19.70
23208;BMP180;11773;52.570;13.052;2023-10-13T02:43:57;101050.00;;;19.80
23208;BMP180;11773;52.570;13.052;2023-10-13T02:46:26;101032.00;;;19.70
23208;BMP180;11773;52.570;13.052;2023-10-13T02:48:59;101030.00;;;19.80
23208;BMP180;11773;52.570;13.052;2023-10-13T02:51:30;101030.00;;;19.80
23208;BMP180;11773;52.570;13.052;2023-10-13T02:54:06;101016.00;;;19.80
23208;BMP180;11773;52.570;13.052;2023-10-13T02:56:40;101009.00;;;19.80
23208;BMP180;11773;52.570;13.052;2023-10-13T02:59:11;101006.00;;;19.80
23208;BMP180;11773;52.570;13.052;2023-10-13T03:01:41;101023.00;;;19.80
23208;BMP180;11773;52.570;13.052;2023-10-13T03:04:11;101003.00;;;19.80
23208;BMP180;11773;52.570;13.052;2023-10-13T03:06:41;101020.00;;;19.80
23208;BMP180;11773;52.570;13.052;2023-10-13T03:09:11;101009.00;;;19.80
23208;BMP180;11773;52.570;13.052;2023-10-13T03:11:47;100997.00;;;19.80
23208;BMP180;11773;52.570;13.052;2023-10-13T03:14:20;100989.00;;;19.80
23208;BMP180;11773;52.570;13.052;2023-10-13T03:16:57;100983.00;;;19.80
23208;BMP180;11773;52.570;13.052;2023-10-13T03:19:38;100974.00;;;19.80
23208;BMP180;11773;52.570;13.052;2023-10-13T03:22:10;100983.00;;;19.80
23208;BMP180;11773;52.570;13.052;2023-10-13T03:24:42;100972.00;;;19.80
23208;BMP180;11773;52.570;13.052;2023-10-13T03:27:18;100967.00;;;19.80
23208;BMP180;11773;52.570;13.052;2023-10-13T03:29:52;100960.00;;;19.80
23208;BMP180;11773;52.570;13.052;2023-10-13T03:32:24;100965.00;;;19.80
23208;BMP180;11773;52.570;13.052;2023-10-13T03:34:55;100942.00;;;19.80
23208;BMP180;11773;52.570;13.052;2023-10-13T03:37:29;100945.00;;;19.80
23208;BMP180;11773;52.570;13.052;2023-10-13T03:40:10;100948.00;;;19.90
23208;BMP180;11773;52.570;13.052;2023-10-13T03:42:53;100950.00;;;19.80
23208;BMP180;11773;52.570;13.052;2023-10-13T03:45:44;100954.00;;;19.90
23208;BMP180;11773;52.570;13.052;2023-10-13T03:48:20;100936.00;;;19.90
23208;BMP180;11773;52.570;13.052;2023-10-13T03:51:02;100934.00;;;19.80
23208;BMP180;11773;52.570;13.052;2023-10-13T03:53:43;100939.00;;;19.90
23208;BMP180;11773;52.570;13.052;2023-10-13T03:56:25;100943.00;;;19.90
23208;BMP180;11773;52.570;13.052;2023-10-13T03:58:59;100941.00;;;19.90
23208;BMP180;11773;52.570;13.052;2023-10-13T04:01:30;100917.00;;;19.90
23208;BMP180;11773;52.570;13.052;2023-10-13T04:04:00;100927.00;;;19.90
23208;BMP180;11773;52.570;13.052;2023-10-13T04:06:35;100924.00;;;19.90
23208;BMP180;11773;52.570;13.052;2023-10-13T04:09:21;100934.00;;;19.90
23208;BMP180;11773;52.570;13.052;2023-10-13T04:12:06;100938.00;;;19.90
23208;BMP180;11773;52.570;13.052;2023-10-13T04:14:45;100924.00;;;19.90
23208;BMP180;11773;52.570;13.052;2023-10-13T04:17:28;100915.00;;;19.90
23208;BMP180;11773;52.570;13.052;2023-10-13T04:20:00;100919.00;;;20.00
23208;BMP180;11773;52.570;13.052;2023-10-13T04:22:40;100904.00;;;20.00
23208;BMP180;11773;52.570;13.052;2023-10-13T04:25:26;100907.00;;;20.00
23208;BMP180;11773;52.570;13.052;2023-10-13T04:28:14;100905.00;;;20.00
23208;BMP180;11773;52.570;13.052;2023-10-13T04:30:51;100908.00;;;20.00
23208;BMP180;11773;52.570;13.052;2023-10-13T04:33:34;100903.00;;;20.00
23208;BMP180;11773;52.570;13.052;2023-10-13T04:36:09;100894.00;;;20.00
23208;BMP180;11773;52.570;13.052;2023-10-13T04:39:00;100880.00;;;20.00
23208;BMP180;11773;52.570;13.052;2023-10-13T04:41:33;100894.00;;;20.10
23208;BMP180;11773;52.570;13.052;2023-10-13T04:44:20;100878.00;;;20.00
23208;BMP180;11773;52.570;13.052;2023-10-13T04:47:01;100888.00;;;20.10
23208;BMP180;11773;52.570;13.052;2023-10-13T04:49:38;100884.00;;;20.10
23208;BMP180;11773;52.570;13.052;2023-10-13T04:52:14;100876.00;;;20.10
23208;BMP180;11773;52.570;13.052;2023-10-13T04:54:46;100885.00;;;20.10
23208;BMP180;11773;52.570;13.052;2023-10-13T04:57:22;100894.00;;;20.10
23208;BMP180;11773;52.570;13.052;2023-10-13T04:59:54;100867.00;;;20.10
23208;BMP180;11773;52.570;13.052;2023-10-13T05:02:35;100886.00;;;20.20
23208;BMP180;11773;52.570;13.052;2023-10-13T05:05:10;100889.00;;;20.20
23208;BMP180;11773;52.570;13.052;2023-10-13T05:07:45;100883.00;;;20.20
23208;BMP180;11773;52.570;13.052;2023-10-13T05:10:34;100871.00;;;20.20
23208;BMP180;11773;52.570;13.052;2023-10-13T05:13:22;100876.00;;;20.20
23208;BMP180;11773;52.570;13.052;2023-10-13T05:16:10;100867.00;;;20.20
23208;BMP180;11773;52.570;13.052;2023-10-13T05:18:57;100874.00;;;20.30
23208;BMP180;11773;52.570;13.052;2023-10-13T05:21:45;100868.00;;;20.20
23208;BMP180;11773;52.570;13.052;2023-10-13T05:24:33;100866.00;;;20.20
23208;BMP180;11773;52.570;13.052;2023-10-13T05:27:20;100874.00;;;20.30
23208;BMP180;11773;52.570;13.052;2023-10-13T05:30:08;100874.00;;;20.30
23208;BMP180;11773;52.570;13.052;2023-10-13T05:32:55;100866.00;;;20.30
23208;BMP180;11773;52.570;13.052;2023-10-13T05:35:43;100873.00;;;20.30
23208;BMP180;11773;52.570;13.052;2023-10-13T05:38:32;100878.00;;;20.30
23208;BMP180;11773;52.570;13.052;2023-10-13T05:41:20;100871.00;;;20.30
23208;BMP180;11773;52.570;13.052;2023-10-13T05:44:07;100874.00;;;20.30
23208;BMP180;11773;52.570;13.052;2023-10-13T05:46:55;100872.00;;;20.30
23208;BMP180;11773;52.570;13.052;2023-10-13T05:49:32;100857.00;;;20.40
23208;BMP180;11773;52.570;13.052;2023-10-13T05:52:22;100871.00;;;20.40
23208;BMP180;11773;52.570;13.052;2023-10-13T05:55:09;100864.00;;;20.40
23208;BMP180;11773;52.570;13.052;2023-10-13T05:57:57;100861.00;;;20.40
23208;BMP180;11773;52.570;13.052;2023-10-13T06:00:44;100872.00;;;20.40
23208;BMP180;11773;52.570;13.052;2023-10-13T06:03:32;100847.00;;;20.40
23208;BMP180;11773;52.570;13.052;2023-10-13T06:06:20;100845.00;;;20.40
23208;BMP180;11773;52.570;13.052;2023-10-13T06:09:07;100843.00;;;20.40
23208;BMP180;11773;52.570;13.052;2023-10-13T06:11:55;100831.00;;;20.40
23208;BMP180;11773;52.570;13.052;2023-10-13T06:14:47;100826.00;;;20.50
23208;BMP180;11773;52.570;13.052;2023-10-13T06:17:35;100847.00;;;20.50
23208;BMP180;11773;52.570;13.052;2023-10-13T06:20:22;100830.00;;;20.50
23208;BMP180;11773;52.570;13.052;2023-10-13T06:23:10;100851.00;;;20.60
23208;BMP180;11773;52.570;13.052;2023-10-13T06:25:57;100847.00;;;20.60
23208;BMP180;11773;52.570;13.052;2023-10-13T06:28:45;100839.00;;;20.70
23208;BMP180;11773;52.570;13.052;2023-10-13T06:31:14;100831.00;;;20.80
23208;BMP180;11773;52.570;13.052;2023-10-13T06:33:46;100838.00;;;20.80
23208;BMP180;11773;52.570;13.052;2023-10-13T06:36:16;100830.00;;;20.90
23208;BMP180;11773;52.570;13.052;2023-10-13T06:38:48;100832.00;;;21.00
23208;BMP180;11773;52.570;13.052;2023-10-13T06:41:20;100850.00;;;21.00
23208;BMP180;11773;52.570;13.052;2023-10-13T06:43:50;100844.00;;;21.10
23208;BMP180;11773;52.570;13.052;2023-10-13T06:46:22;100830.00;;;21.10
23208;BMP180;11773;52.570;13.052;2023-10-13T06:48:52;100843.00;;;21.20
23208;BMP180;11773;52.570;13.052;2023-10-13T06:51:22;100835.00;;;21.20
23208;BMP180;11773;52.570;13.052;2023-10-13T06:53:53;100845.00;;;21.30
23208;BMP180;11773;52.570;13.052;2023-10-13T06:56:25;100832.00;;;21.30
23208;BMP180;11773;52.570;13.052;2023-10-13T06:58:58;100834.00;;;21.30
23208;BMP180;11773;52.570;13.052;2023-10-13T07:01:28;100838.00;;;21.30
23208;BMP180;11773;52.570;13.052;2023-10-13T07:03:58;100831.00;;;21.30
23208;BMP180;11773;52.570;13.052;2023-10-13T07:06:30;100836.00;;;21.40
23208;BMP180;11773;52.570;13.052;2023-10-13T07:08:59;100830.00;;;21.40
23208;BMP180;11773;52.570;13.052;2023-10-13T07:11:31;100830.00;;;21.40
23208;BMP180;11773;52.570;13.052;2023-10-13T07:14:05;100825.00;;;21.40
23208;BMP180;11773;52.570;13.052;2023-10-13T07:17:03;100828.00;;;21.40
23208;BMP180;11773;52.570;13.052;2023-10-13T07:19:34;100824.00;;;21.40
23208;BMP180;11773;52.570;13.052;2023-10-13T07:22:05;100822.00;;;21.40
23208;BMP180;11773;52.570;13.052;2023-10-13T07:24:51;100826.00;;;21.40
23208;BMP180;11773;52.570;13.052;2023-10-13T07:27:22;100826.00;;;21.40
23208;BMP180;11773;52.570;13.052;2023-10-13T07:29:57;100821.00;;;21.50
23208;BMP180;11773;52.570;13.052;2023-10-13T07:32:43;100818.00;;;21.50
23208;BMP180;11773;52.570;13.052;2023-10-13T07:35:19;100821.00;;;21.50
23208;BMP180;11773;52.570;13.052;2023-10-13T07:37:51;100815.00;;;21.50
23208;BMP180;11773;52.570;13.052;2023-10-13T07:40:24;100806.00;;;21.60
23208;BMP180;11773;52.570;13.052;2023-10-13T07:42:57;100810.00;;;21.60
23208;BMP180;11773;52.570;13.052;2023-10-13T07:45:28;100820.00;;;21.60
23208;BMP180;11773;52.570;13.052;2023-10-13T07:48:10;100811.00;;;21.60
23208;BMP180;11773;52.570;13.052;2023-10-13T07:51:01;100804.00;;;21.70
23208;BMP180;11773;52.570;13.052;2023-10-13T07:53:35;100818.00;;;21.70
23208;BMP180;11773;52.570;13.052;2023-10-13T07:56:09;100802.00;;;21.70
23208;BMP180;11773;52.570;13.052;2023-10-13T07:58:41;100819.00;;;21.70
23208;BMP180;11773;52.570;13.052;2023-10-13T08:01:21;100796.00;;;21.80
23208;BMP180;11773;52.570;13.052;2023-10-13T08:03:51;100797.00;;;21.80
23208;BMP180;11773;52.570;13.052;2023-10-13T08:06:27;100791.00;;;21.80
23208;BMP180;11773;52.570;13.052;2023-10-13T08:08:58;100796.00;;;21.90
23208;BMP180;11773;52.570;13.052;2023-10-13T08:11:37;100785.00;;;21.90
23208;BMP180;11773;52.570;13.052;2023-10-13T08:14:07;100777.00;;;21.90
23208;BMP180;11773;52.570;13.052;2023-10-13T08:16:53;100795.00;;;21.90
23208;BMP180;11773;52.570;13.052;2023-10-13T08:19:25;100782.00;;;22.00
23208;BMP180;11773;52.570;13.052;2023-10-13T08:22:03;100790.00;;;22.00
23208;BMP180;11773;52.570;13.052;2023-10-13T08:24:50;100778.00;;;22.10
23208;BMP180;11773;52.570;13.052;2023-10-13T08:27:22;100777.00;;;22.10
23208;BMP180;11773;52.570;13.052;2023-10-13T08:30:04;100768.00;;;22.10
23208;BMP180;11773;52.570;13.052;2023-10-13T08:32:52;100766.00;;;22.20
23208;BMP180;11773;52.570;13.052;2023-10-13T08:35:29;100773.00;;;22.20
23208;BMP180;11773;52.570;13.052;2023-10-13T08:38:03;100759.00;;;22.30
23208;BMP180;11773;52.570;13.052;2023-10-13T08:40:36;100744.00;;;22.30
23208;BMP180;11773;52.570;13.052;2023-10-13T08:43:14;100747.00;;;22.30
23208;BMP180;11773;52.570;13.052;2023-10-13T08:45:45;100744.00;;;22.30
23208;BMP180;11773;52.570;13.052;2023-10-13T08:48:16;100744.00;;;22.40
23208;BMP180;11773;52.570;13.052;2023-10-13T08:50:52;100752.00;;;22.40
23208;BMP180;11773;52.570;13.052;2023-10-13T08:53:27;100763.00;;;22.40
23208;BMP180;11773;52.570;13.052;2023-10-13T08:56:09;100741.00;;;22.50
23208;BMP180;11773;52.570;13.052;2023-10-13T08:58:46;100739.00;;;22.50
23208;BMP180;11773;52.570;13.052;2023-10-13T09:01:26;100737.00;;;22.50
23208;BMP180;11773;52.570;13.052;2023-10-13T09:04:14;100746.00;;;22.50
23208;BMP180;11773;52.570;13.052;2023-10-13T09:06:58;100743.00;;;22.50
23208;BMP180;11773;52.570;13.052;2023-10-13T09:09:47;100726.00;;;22.50
23208;BMP180;11773;52.570;13.052;2023-10-13T09:12:28;100723.00;;;22.60
23208;BMP180;11773;52.570;13.052;2023-10-13T09:15:09;100735.00;;;22.60
23208;BMP180;11773;52.570;13.052;2023-10-13T09:17:48;100722.00;;;22.60
23208;BMP180;11773;52.570;13.052;2023-10-13T09:20:31;100727.00;;;22.60
23208;BMP180;11773;52.570;13.052;2023-10-13T09:23:12;100709.00;;;22.60
23208;BMP180;11773;52.570;13.052;2023-10-13T09:25:43;100719.00;;;22.60
23208;BMP180;11773;52.570;13.052;2023-10-13T09:28:29;100700.00;;;22.60
23208;BMP180;11773;52.570;13.052;2023-10-13T09:30:59;100690.00;;;22.60
23208;BMP180;11773;52.570;13.052;2023-10-13T09:33:30;100690.00;;;22.70
23208;BMP180;11773;52.570;13.052;2023-10-13T09:36:08;100686.00;;;22.70
23208;BMP180;11773;52.570;13.052;2023-10-13T09:38:39;100692.00;;;22.70
23208;BMP180;11773;52.570;13.052;2023-10-13T09:41:09;100680.00;;;22.70
23208;BMP180;11773;52.570;13.052;2023-10-13T09:43:48;100679.00;;;22.70
23208;BMP180;11773;52.570;13.052;2023-10-13T09:46:23;100666.00;;;22.70
23208;BMP180;11773;52.570;13.052;2023-10-13T09:49:05;100663.00;;;22.80
23208;BMP180;11773;52.570;13.052;2023-10-13T09:51:40;100646.00;;;22.80
23208;BMP180;11773;52.570;13.052;2023-10-13T09:54:21;100642.00;;;22.80
23208;BMP180;11773;52.570;13.052;2023-10-13T09:57:00;100640.00;;;22.80
23208;BMP180;11773;52.570;13.052;2023-10-13T09:59:52;100637.00;;;22.80
23208;BMP180;11773;52.570;13.052;2023-10-13T10:02:25;100655.00;;;22.80
23208;BMP180;11773;52.570;13.052;2023-10-13T10:04:56;100655.00;;;22.80
23208;BMP180;11773;52.570;13.052;2023-10-13T10:07:29;100655.00;;;22.90
23208;BMP180;11773;52.570;13.052;2023-10-13T10:10:01;100665.00;;;22.90
23208;BMP180;11773;52.570;13.052;2023-10-13T10:12:59;100655.00;;;22.90
23208;BMP180;11773;52.570;13.052;2023-10-13T10:15:35;100647.00;;;22.90
23208;BMP180;11773;52.570;13.052;2023-10-13T10:18:16;100640.00;;;22.90
23208;BMP180;11773;52.570;13.052;2023-10-13T10:20:39;100641.00;;;22.90
23208;BMP180;11773;52.570;13.052;2023-10-13T10:23:27;100641.00;;;22.90
23208;BMP180;11773;52.570;13.052;2023-10-13T10:25:53;100647.00;;;22.90
23208;BMP180;11773;52.570;13.052;2023-10-13T10:28:34;100638.00;;;23.00
23208;BMP180;11773;52.570;13.052;2023-10-13T10:31:07;100616.00;;;23.00
23208;BMP180;11773;52.570;13.052;2023-10-13T10:33:40;100606.00;;;22.90
23208;BMP180;11773;52.570;13.052;2023-10-13T10:36:10;100606.00;;;23.00
23208;BMP180;11773;52.570;13.052;2023-10-13T10:38:58;100629.00;;;23.00
23208;BMP180;11773;52.570;13.052;2023-10-13T10:41:30;100607.00;;;23.00
23208;BMP180;11773;52.570;13.052;2023-10-13T10:44:15;100615.00;;;23.00
23208;BMP180;11773;52.570;13.052;2023-10-13T10:46:46;100605.00;;;23.00
23208;BMP180;11773;52.570;13.052;2023-10-13T10:49:27;100591.00;;;23.00
23208;BMP180;11773;52.570;13.052;2023-10-13T10:52:01;100589.00;;;23.00
23208;BMP180;11773;52.570;13.052;2023-10-13T10:54:34;100577.00;;;23.00
23208;BMP180;11773;52.570;13.052;2023-10-13T10:57:03;100580.00;;;23.00
23208;BMP180;11773;52.570;13.052;2023-10-13T10:59:46;100577.00;;;23.10
23208;BMP180;11773;52.570;13.052;2023-10-13T11:02:15;100581.00;;;23.10
23208;BMP180;11773;52.570;13.052;2023-10-13T11:04:51;100581.00;;;23.10
23208;BMP180;11773;52.570;13.052;2023-10-13T11:07:24;100592.00;;;23.20
23208;BMP180;11773;52.570;13.052;2023-10-13T11:09:54;100575.00;;;23.20
23208;BMP180;11773;52.570;13.052;2023-10-13T11:12:28;100563.00;;;23.20
23208;BMP180;11773;52.570;13.052;2023-10-13T11:15:09;100568.00;;;23.20
23208;BMP180;11773;52.570;13.052;2023-10-13T11:17:49;100588.00;;;23.30
23208;BMP180;11773;52.570;13.052;2023-10-13T11:20:27;100570.00;;;23.30
23208;BMP180;11773;52.570;13.052;2023-10-13T11:22:58;100562.00;;;23.30
23208;BMP180;11773;52.570;13.052;2023-10-13T11:25:31;100565.00;;;23.30
23208;BMP180;11773;52.570;13.052;2023-10-13T11:28:14;100543.00;;;23.40
23208;BMP180;11773;52.570;13.052;2023-10-13T11:30:49;100549.00;;;23.30
23208;BMP180;11773;52.570;13.052;2023-10-13T11:33:19;100542.00;;;23.40
23208;BMP180;11773;52.570;13.052;2023-10-13T11:35:59;100542.00;;;23.40
23208;BMP180;11773;52.570;13.052;2023-10-13T11:38:35;100526.00;;;23.40
23208;BMP180;11773;52.570;13.052;2023-10-13T11:41:16;100542.00;;;23.40
23208;BMP180;11773;52.570;13.052;2023-10-13T11:43:52;100528.00;;;23.50
23208;BMP180;11773;52.570;13.052;2023-10-13T11:46:27;100538.00;;;23.50
23208;BMP180;11773;52.570;13.052;2023-10-13T11:49:10;100529.00;;;23.50
23208;BMP180;11773;52.570;13.052;2023-10-13T11:51:49;100515.00;;;23.50
23208;BMP180;11773;52.570;13.052;2023-10-13T11:54:22;100492.00;;;23.60
23208;BMP180;11773;52.570;13.052;2023-10-13T11:56:52;100501.00;;;23.60
23208;BMP180;11773;52.570;13.052;2023-10-13T11:59:23;100490.00;;;23.60
23208;BMP180;11773;52.570;13.052;2023-10-13T12:01:55;100482.00;;;23.60
23208;BMP180;11773;52.570;13.052;2023-10-13T12:04:41;100491.00;;;23.70
23208;BMP180;11773;52.570;13.052;2023-10-13T12:07:22;100482.00;;;23.70
23208;BMP180;11773;52.570;13.052;2023-10-13T12:10:09;100469.00;;;23.70
23208;BMP180;11773;52.570;13.052;2023-10-13T12:12:46;100474.00;;;23.80
23208;BMP180;11773;52.570;13.052;2023-10-13T12:15:18;100465.00;;;23.80
23208;BMP180;11773;52.570;13.052;2023-10-13T12:17:58;100470.00;;;23.80
23208;BMP180;11773;52.570;13.052;2023-10-13T12:20:28;100462.00;;;23.90
23208;BMP180;11773;52.570;13.052;2023-10-13T12:23:04;100473.00;;;23.90
23208;BMP180;11773;52.570;13.052;2023-10-13T12:25:41;100470.00;;;23.90
23208;BMP180;11773;52.570;13.052;2023-10-13T12:28:15;100449.00;;;24.00
23208;BMP180;11773;52.570;13.052;2023-10-13T12:30:50;100459.00;;;24.00
23208;BMP180;11773;52.570;13.052;2023-10-13T12:33:24;100439.00;;;24.10
23208;BMP180;11773;52.570;13.052;2023-10-13T12:35:59;100446.00;;;24.10
23208;BMP180;11773;52.570;13.052;2023-10-13T12:38:40;100436.00;;;24.20
23208;BMP180;11773;52.570;13.052;2023-10-13T12:41:19;100436.00;;;24.20
23208;BMP180;11773;52.570;13.052;2023-10-13T12:44:07;100438.00;;;24.20
23208;BMP180;11773;52.570;13.052;2023-10-13T12:46:55;100440.00;;;24.30
23208;BMP180;11773;52.570;13.052;2023-10-13T12:49:43;100429.00;;;24.30
23208;BMP180;11773;52.570;13.052;2023-10-13T12:52:20;100422.00;;;24.30
23208;BMP180;11773;52.570;13.052;2023-10-13T12:54:52;100403.00;;;24.40
23208;BMP180;11773;52.570;13.052;2023-10-13T12:57:28;100391.00;;;24.40
23208;BMP180;11773;52.570;13.052;2023-10-13T12:59:58;100401.00;;;24.40
23208;BMP180;11773;52.570;13.052;2023-10-13T13:02:28;100394.00;;;24.50
23208;BMP180;11773;52.570;13.052;2023-10-13T13:05:00;100395.00;;;24.50
23208;BMP180;11773;52.570;13.052;2023-10-13T13:07:38;100398.00;;;24.60
23208;BMP180;11773;52.570;13.052;2023-10-13T13:10:19;100384.00;;;24.60
23208;BMP180;11773;52.570;13.052;2023-10-13T13:12:50;100375.00;;;24.70
23208;BMP180;11773;52.570;13.052;2023-10-13T13:15:20;100384.00;;;24.80
23208;BMP180;11773;52.570;13.052;2023-10-13T13:17:51;100368.00;;;24.80
23208;BMP180;11773;52.570;13.052;2023-10-13T13:20:21;100373.00;;;24.80
23208;BMP180;11773;52.570;13.052;2023-10-13T13:22:58;100383.00;;;24.90
23208;BMP180;11773;52.570;13.052;2023-10-13T13:25:30;100352.00;;;24.90
23208;BMP180;11773;52.570;13.052;2023-10-13T13:28:01;100367.00;;;25.00
23208;BMP180;11773;52.570;13.052;2023-10-13T13:30:32;100346.00;;;25.00
23208;BMP180;11773;52.570;13.052;2023-10-13T13:33:04;100354.00;;;25.10
23208;BMP180;11773;52.570;13.052;2023-10-13T13:35:35;100356.00;;;25.10
23208;BMP180;11773;52.570;13.052;2023-10-13T13:38:05;100342.00;;;25.20
23208;BMP180;11773;52.570;13.052;2023-10-13T13:40:53;100349.00;;;25.20
23208;BMP180;11773;52.570;13.052;2023-10-13T13:43:26;100358.00;;;25.20
23208;BMP180;11773;52.570;13.052;2023-10-13T13:46:10;100352.00;;;25.30
23208;BMP180;11773;52.570;13.052;2023-10-13T13:48:40;100332.00;;;25.30
23208;BMP180;11773;52.570;13.052;2023-10-13T13:51:10;100338.00;;;25.40
23208;BMP180;11773;52.570;13.052;2023-10-13T13:53:47;100335.00;;;25.40
23208;BMP180;11773;52.570;13.052;2023-10-13T13:56:17;100335.00;;;25.40
23208;BMP180;11773;52.570;13.052;2023-10-13T13:58:49;100335.00;;;25.50
23208;BMP180;11773;52.570;13.052;2023-10-13T14:01:22;100317.00;;;25.50
23208;BMP180;11773;52.570;13.052;2023-10-13T14:03:54;100332.00;;;25.50
23208;BMP180;11773;52.570;13.052;2023-10-13T14:06:28;100318.00;;;25.60
23208;BMP180;11773;52.570;13.052;2023-10-13T14:09:00;100304.00;;;25.60
23208;BMP180;11773;52.570;13.052;2023-10-13T14:11:33;100306.00;;;25.60
23208;BMP180;11773;52.570;13.052;2023-10-13T14:14:15;100318.00;;;25.70
23208;BMP180;11773;52.570;13.052;2023-10-13T14:16:56;100318.00;;;25.70
23208;BMP180;11773;52.570;13.052;2023-10-13T14:19:35;100313.00;;;25.70
23208;BMP180;11773;52.570;13.052;2023-10-13T14:22:07;100301.00;;;25.70
23208;BMP180;11773;52.570;13.052;2023-10-13T14:24:38;100298.00;;;25.70
23208;BMP180;11773;52.570;13.052;2023-10-13T14:27:16;100299.00;;;25.70
23208;BMP180;11773;52.570;13.052;2023-10-13T14:29:51;100293.00;;;25.80
23208;BMP180;11773;52.570;13.052;2023-10-13T14:32:22;100284.00;;;25.80
23208;BMP180;11773;52.570;13.052;2023-10-13T14:34:56;100276.00;;;25.80
23208;BMP180;11773;52.570;13.052;2023-10-13T14:37:26;100271.00;;;25.80